Latest Coastal Weather Observations for Norfolk Island

IDN60701

Issued at 1:22 am EDT Saturday 7 March 2015 (issued every 10 minutes, with the page automatically refreshed every 10 minutes)

About coastal observations | Map of coastal stations | Coastal observations for NSW | Marine services | Other Formats
Station Details ID: 200288 Name: NORFOLK ISLAND AERO Lat: -29.04 Lon: 167.94 Height: 111.73 m
Data from the previous 72 hours. | See also: Recent months at Norfolk Island
Date/Time
EDT
Temp

°C
Wind Pressure Rain
since 9am
mm
Weather Cloud Vis
km
Sea
Height
m
Swell
Dir
 
Speed
knots
Gust
knots
hPa Trend Height
m
Period
s
Dir
07/01:00am 21.1 NNE 2 4 1008.3 - 3.2 - Partly cloudy 10 - - - -
07/12:30am 21.3 NE 5 6 1008.2 - 3.2 - - 9 - - - -
07/12:00am 21.3 NNE 4 5 1008.3 - 3.2 - - 10 - - - -
 
Date/Time
EDT
Temp

°C
Wind Pressure Rain
since 9am
mm
Weather Cloud Vis
km
Sea
Height
m
Swell
Dir
 
Speed
knots
Gust
knots
hPa Trend Height
m
Period
s
Dir
06/11:30pm 21.4 NNE 3 5 1007.7 - 3.2 - - 10 - - - -
06/11:00pm 21.3 NNE 4 6 1008.2 - 3.2 - Mostly clear 10 - - - -
06/10:30pm 21.2 NE 1 5 1008.1 - 3.2 - Mostly clear 10 - - - -
06/10:22pm 21.3 CALM 0 0 1008.1 - 3.2 - Mostly clear 9 - - - -
06/10:00pm 21.6 CALM 0 0 1008.2 - 3.2 Shallow fog Mostly clear 5 - - - -
06/09:45pm 21.8 CALM 0 0 1008.1 - 3.2 - Mostly clear 6 - - - -
06/09:30pm 21.9 CALM 0 0 1008.1 - 3.2 Fog patches Partly cloudy 0.8 - - - -
06/09:00pm 21.9 CALM 0 3 1008.2 - 3.2 - Mostly clear 10 - - - -
06/08:30pm 21.9 E 5 6 1007.5 R 3.2 Recent precip. Mostly cloudy 9 - - - -
06/08:15pm 21.9 SSE 5 7 1007.9 - 3.2 - Partly cloudy 8 - - - -
06/08:00pm 21.9 S 5 7 1008.0 - 3.2 - Mostly clear 8 - - - -
06/07:41pm 22.0 SSE 6 7 1007.9 - 3.2 Drizzle Partly cloudy 7 - - - -
06/07:30pm 21.9 S 7 8 1007.7 - 3.2 Drizzle Partly cloudy 5 - - - -
06/07:18pm 22.0 S 7 9 1007.6 - 3.2 Drizzle Partly cloudy 5 - - - -
06/07:11pm 22.1 S 7 8 1007.5 - 3.2 Showers Mostly clear 8 - - - -
06/07:00pm 22.1 S 7 8 1007.4 - 3.2 Showers Mostly cloudy 5 - - - -
06/06:42pm 22.3 S 5 7 1007.1 - 3.0 Showers Mostly cloudy 3 - - - -
06/06:30pm 22.7 SSW 4 8 1007.1 - 1.4 Showers Partly cloudy 2 - - - -
06/06:26pm 22.7 SSW 5 8 1007.0 - 0.4 Showers Mostly clear 4 - - - -
06/06:00pm 23.7 W 10 14 1006.6 - 0.2 - Mostly clear 10 - - - -
06/05:30pm 23.8 WNW 10 14 1005.8 R 0.2 Distant precip. Mostly cloudy 22 - - - -
06/05:20pm 23.8 WNW 9 14 1006.3 - 0.2 - Partly cloudy 10 - - - -
06/05:00pm 23.9 W 11 15 1006.2 - 0.2 - Partly cloudy 10 - - - -
06/04:30pm 24.6 WNW 10 15 1006.0 - 0.2 - Partly cloudy 10 - - - -
06/04:00pm 24.2 WNW 11 15 1006.0 - 0.2 - Mostly clear 10 - - - -
06/03:30pm 24.2 W 13 17 1005.9 - 0.2 - Mostly clear 10 - - - -
06/03:00pm 24.6 WNW 11 15 1006.0 - 0.2 - Cloudy 10 - - - -
06/02:30pm 25.5 WNW 11 16 1005.5 R 0.2 Fine Mostly cloudy 30 - - - -
06/02:10pm 25.3 WNW 11 16 1006.2 - 0.2 - Partly cloudy 10 - - - -
06/02:00pm 25.6 WNW 10 16 1006.4 - 0.2 - Partly cloudy 10 - - - -
06/01:30pm 25.2 WNW 12 17 1006.7 - 0.2 - Mostly clear 10 - - - -
06/01:00pm 24.8 WNW 10 15 1006.8 - 0.2 - Partly cloudy 10 - - - -
06/12:30pm 25.2 NW 11 17 1006.9 - 0.2 - Mostly clear 10 - - - -
06/12:00pm 25.5 WNW 11 18 1007.1 - 0.2 - Partly cloudy 10 - - - -
06/11:30am 25.2 WNW 12 16 1006.6 F 0.2 Fine Mostly clear 40 - - - -
06/11:00am 24.4 WNW 11 16 1007.3 - 0.2 - Mostly clear 10 - - - -
06/10:30am 24.3 WNW 10 15 1007.3 - 0.2 - Mostly cloudy 10 - - - -
06/10:00am 24.7 WNW 11 16 1007.5 - 0.0 - Mostly clear 10 - - - -
06/09:30am 23.9 WNW 9 14 1007.5 - 0.0 - Partly cloudy 10 - - - -
06/09:00am 24.3 WNW 9 12 1007.3 - 0.0 - Mostly clear 10 - - - -
06/08:30am 23.5 WNW 8 10 1006.9 F 0.0 Fine Mostly clear 40 - - - -
06/07:58am 22.5 WNW 6 8 1007.1 - 0.0 - Mostly clear 10 - - - -
06/07:51am 22.1 WNW 6 8 1007.0 - 0.0 - Partly cloudy 10 - - - -
06/07:45am 21.9 WNW 7 9 1007.0 - 0.0 - Partly cloudy 9 - - - -
06/07:30am 21.7 W 4 5 1006.8 - 0.0 Drizzle Mostly clear 2 - - - -
06/07:00am 21.6 W 7 10 1006.8 - 0.0 Drizzle Mostly clear 6 - - - -
06/06:30am 22.4 WNW 7 10 1006.3 - 0.0 - Partly cloudy 10 - - - -
06/06:00am 22.2 WNW 6 8 1006.2 - 0.0 - Partly cloudy 10 - - - -
06/05:30am 22.0 WNW 6 8 1005.7 - 0.0 - Cloudy 10 - - - -
06/05:00am 21.7 WNW 6 9 1006.0 - 0.0 - Partly cloudy 10 - - - -
06/04:30am 21.5 NW 5 9 1006.2 - 0.0 - Partly cloudy 10 - - - -
06/04:00am 21.5 WNW 6 8 1006.3 - 0.0 - - 10 - - - -
06/03:30am 21.7 WNW 7 10 1006.4 - 0.0 - Partly cloudy 10 - - - -
06/03:00am 21.5 WNW 7 9 1006.5 - 0.0 - - 10 - - - -
06/02:30am 21.3 WNW 7 8 1006.2 - 0.0 - - 10 - - - -
06/02:00am 21.0 WNW 6 7 1006.9 - 0.0 - - 10 - - - -
06/01:30am 20.6 WNW 5 6 1007.1 - 0.0 - - 10 - - - -
06/01:00am 20.3 NW 4 6 1007.2 - 0.0 - - 10 - - - -
06/12:30am 20.5 NNW 4 5 1007.2 - 0.0 - - 10 - - - -
06/12:00am 20.2 NNW 4 5 1007.3 - 0.0 - - 10 - - - -
 
Date/Time
EDT
Temp

°C
Wind Pressure Rain
since 9am
mm
Weather Cloud Vis
km
Sea
Height
m
Swell
Dir
 
Speed
knots
Gust
knots
hPa Trend Height
m
Period
s
Dir
05/11:30pm 19.8 NW 4 5 1007.1 - 0.0 - - 10 - - - -
05/11:00pm 20.5 NW 2 4 1007.7 - 0.0 - Mostly clear 10 - - - -
05/10:30pm 20.6 CALM 0 0 1007.8 - 0.0 - Mostly clear 10 - - - -
05/10:00pm 21.1 CALM 0 0 1007.7 - 0.0 - Partly cloudy 10 - - - -
05/09:30pm 21.3 CALM 0 0 1007.9 - 0.0 - Mostly clear 10 - - - -
05/09:00pm 21.1 CALM 0 0 1007.8 - 0.0 - Mostly clear 10 - - - -
05/08:30pm 21.7 CALM 0 0 1007.2 R 0.0 Fine Partly cloudy 22 - - - -
05/08:00pm 21.2 CALM 0 0 1007.7 - 0.0 - Mostly clear 10 - - - -
05/07:30pm 21.1 CALM 0 0 1007.3 - 0.0 - Partly cloudy 10 - - - -
05/07:00pm 21.2 CALM 0 0 1006.9 - 0.0 - Mostly clear 10 - - - -
05/06:30pm 21.8 SSW 3 5 1006.6 - 0.0 - Mostly clear 10 - - - -
05/06:00pm 22.6 SSW 6 7 1006.5 - 0.0 - Mostly clear 10 - - - -
05/05:30pm 23.3 SSW 6 7 1005.9 F 0.0 Fine Mostly clear 35 - - - -
05/05:00pm 23.4 SSW 7 9 1006.3 - 0.0 - Mostly clear 10 - - - -
05/04:30pm 24.0 SSW 7 10 1006.1 - 0.0 - Mostly clear 10 - - - -
05/04:00pm 23.9 SSW 8 11 1006.1 - 0.0 - Mostly clear 10 - - - -
05/03:30pm 23.9 SSW 9 11 1006.2 - 0.0 - Partly cloudy 10 - - - -
05/03:27pm 24.0 S 8 11 1006.2 - 0.0 - Partly cloudy 10 - - - -
05/03:08pm 24.7 SSW 8 12 1006.3 - 0.0 - Partly cloudy 10 - - - -
05/03:06pm 24.0 SSW 8 12 1006.3 - 0.0 - Partly cloudy 10 - - - -
05/03:00pm 23.9 SSW 9 12 1006.4 - 0.0 - Partly cloudy 10 - - - -
05/02:45pm 24.5 SSW 9 13 1006.5 - 0.0 - Partly cloudy 10 - - - -
05/02:30pm 24.3 SSW 8 11 1006.2 F 0.0 Fine Partly cloudy 40 - - - -
05/02:00pm 24.6 SW 8 10 1007.0 - 0.0 - Mostly clear 10 - - - -
05/01:30pm 24.6 SSW 8 12 1007.5 - 0.0 - Partly cloudy 10 - - - -
05/01:00pm 24.8 SSW 8 11 1007.9 - 0.0 - Partly cloudy 10 - - - -
05/12:30pm 24.8 SW 9 11 1008.3 - 0.0 - Mostly clear 10 - - - -
05/12:00pm 24.4 SW 8 11 1008.4 - 0.0 - Mostly clear 10 - - - -
05/11:30am 24.3 S 6 9 1008.2 F 0.0 Fine Mostly clear 40 - - - -
05/11:00am 24.5 S 7 9 1008.9 - 0.0 - Mostly clear 10 - - - -
05/10:30am 24.6 SSE 6 9 1009.2 - 0.0 - Mostly clear 10 - - - -
05/10:00am 24.0 S 8 11 1009.4 - 0.0 - Mostly clear 10 - - - -
05/09:30am 23.8 S 8 10 1009.7 - 0.0 - Mostly clear 10 - - - -
05/09:00am 23.5 S 8 10 1009.8 - 0.0 - Mostly clear 10 - - - -
05/08:30am 23.4 S 8 11 1009.1 F 1.0 Fine Partly cloudy 40 - - - -
05/08:00am 22.6 SSE 6 8 1009.4 - 1.0 - Partly cloudy 10 - - - -
05/07:30am 22.3 SSE 5 7 1009.2 - 1.0 - Mostly clear 10 - - - -
05/07:00am 22.1 S 4 6 1009.2 - 1.0 - Mostly clear 10 - - - -
05/06:30am 20.8 CALM 0 1 1009.1 - 1.0 - Partly cloudy 10 - - - -
05/06:00am 20.8 CALM 0 0 1009.1 - 1.0 - Cloudy 10 - - - -
05/05:52am 20.8 SSW 1 5 1009.1 - 1.0 - Cloudy 10 - - - -
05/05:30am 20.9 S 7 9 1008.6 - 1.0 - Mostly cloudy 4 - - - -
05/05:27am 21.0 S 7 9 1009.1 - 1.0 - Partly cloudy 5 - - - -
05/05:00am 21.3 SSE 6 8 1009.0 - 1.0 - Partly cloudy 10 - - - -
05/04:30am 21.3 SSE 5 7 1008.8 - 1.0 - Partly cloudy 10 - - - -
05/04:00am 21.1 SSE 6 8 1008.9 - 1.0 - - 10 - - - -
05/03:30am 21.2 SE 4 7 1008.8 - 1.0 - Partly cloudy 10 - - - -
05/03:00am 21.5 SSE 5 7 1008.9 - 1.0 - Cloudy 10 - - - -
05/02:30am 21.6 SSE 5 7 1008.5 - 1.0 - Mostly cloudy 10 - - - -
05/02:00am 21.5 SSE 5 8 1009.3 - 1.0 - Cloudy 10 - - - -
05/01:30am 21.4 S 5 7 1009.6 - 1.0 - Cloudy 10 - - - -
05/01:20am 21.3 SSE 5 8 1009.7 - 1.0 - Partly cloudy 10 - - - -
05/01:11am 21.4 SE 7 8 1009.9 - 1.0 - Partly cloudy 10 - - - -
05/01:00am 21.4 SE 7 10 1010.0 - 1.0 - Partly cloudy 6 - - - -
05/12:56am 21.4 SE 7 10 1010.0 - 1.0 - Partly cloudy 6 - - - -
05/12:45am 21.4 S 7 9 1010.0 - 1.0 - Partly cloudy 10 - - - -
05/12:30am 21.3 S 9 12 1010.0 - 1.0 - Partly cloudy 10 - - - -
05/12:19am 21.3 S 9 11 1010.1 - 1.0 - Partly cloudy 10 - - - -
05/12:16am 21.4 S 9 12 1010.1 - 1.0 - Partly cloudy 10 - - - -
05/12:05am 21.5 S 7 12 1010.2 - 1.0 - Partly cloudy 6 - - - -
05/12:00am 21.5 S 6 8 1010.3 - 0.6 - Partly cloudy 10 - - - -
 
Date/Time
EDT
Temp

°C
Wind Pressure Rain
since 9am
mm
Weather Cloud Vis
km
Sea
Height
m
Swell
Dir
 
Speed
knots
Gust
knots
hPa Trend Height
m
Period
s
Dir
04/11:36pm 21.4 SSE 7 11 1010.5 - 0.6 - Partly cloudy 9 - - - -
04/11:30pm 21.4 S 8 13 1010.1 - 0.6 - Cloudy 10 - - - -
04/11:06pm 21.5 SSE 9 13 1010.8 - 0.4 - Partly cloudy 5 - - - -
04/11:00pm 21.7 SE 9 13 1010.8 - 0.4 - Partly cloudy 10 - - - -
04/10:30pm 22.0 SSE 7 9 1010.9 - 0.4 - Partly cloudy 10 - - - -
04/10:00pm 22.0 SSE 7 11 1011.1 - 0.4 - Partly cloudy 10 - - - -
04/09:30pm 22.1 SSE 7 10 1011.1 - 0.4 - Partly cloudy 10 - - - -
04/09:00pm 21.9 SSE 8 12 1011.1 - 0.4 - Partly cloudy 10 - - - -
04/08:30pm 21.8 SSE 8 11 1010.6 F 0.4 Distant precip. Mostly cloudy 18 - - - -
04/08:00pm 22.1 SSE 8 12 1010.9 - 0.4 - Partly cloudy 10 - - - -
04/07:30pm 22.0 S 8 11 1010.8 - 0.4 - Partly cloudy 4 - - - -
04/07:00pm 21.8 S 9 15 1010.7 - 0.4 - Partly cloudy 9 - - - -
04/06:30pm 22.1 SSE 9 14 1010.4 - 0.4 Drizzle Partly cloudy 6 - - - -
04/06:00pm 22.0 S 8 13 1010.3 - 0.4 Drizzle Partly cloudy 5 - - - -
04/05:30pm 22.2 S 10 14 1009.6 R 0.2 Showers Mostly cloudy 6 - - - -
04/05:22pm 22.3 S 10 14 1010.1 - 0.2 Showers Partly cloudy 6 - - - -
04/05:00pm 22.7 S 9 12 1010.1 - 0.2 Showers Partly cloudy 10 - - - -
04/04:30pm 23.2 S 10 15 1009.8 - 0.2 Showers Partly cloudy 10 - - - -
04/04:00pm 23.8 S 12 17 1009.9 - 0.2 - Mostly clear 10 - - - -
04/03:30pm 23.2 S 11 16 1009.8 - 0.2 Showers Partly cloudy 5 - - - -
04/03:00pm 23.2 S 11 16 1009.8 - 0.2 - Partly cloudy 10 - - - -
04/02:30pm 24.4 S 12 17 1009.5 F 0.2 Fine Mostly cloudy 30 - - - -
04/02:00pm 23.9 S 13 18 1010.2 - 0.2 Showers Mostly clear 10 - - - -
04/01:30pm 24.2 S 13 18 1010.5 - 0.2 - Mostly clear 10 - - - -
04/01:00pm 24.3 S 13 18 1010.7 - 0.2 - Mostly clear 10 - - - -
04/12:30pm 23.8 SSW 13 16 1011.0 - 0.2 - Mostly clear 10 - - - -
04/12:00pm 23.5 S 11 16 1011.3 - 0.2 - Partly cloudy 10 - - - -
04/11:30am 23.4 SSW 12 17 1011.0 S 0.2 Fine Mostly cloudy 30 - - - -
04/11:12am 22.9 SSW 12 17 1011.3 - 0.2 Drizzle Partly cloudy 5 - - - -
04/11:00am 23.2 S 10 14 1011.5 - 0.2 - Partly cloudy 10 - - - -
04/10:53am 22.8 S 11 16 1011.7 - 0.2 - Mostly clear 10 - - - -
04/10:42am 22.6 S 12 15 1011.8 - 0.2 Drizzle Mostly cloudy 5 - - - -
04/10:30am 22.4 SSW 10 14 1011.9 - 0.2 - Mostly cloudy 8 - - - -
04/10:19am 22.8 S 10 13 1011.9 - 0.2 Showers Cloudy 3 - - - -
04/10:06am 22.6 S 10 14 1011.8 - 0.0 - Mostly cloudy 10 - - - -
04/10:00am 22.3 S 10 14 1011.8 - 0.0 - Mostly cloudy 4 - - - -
04/09:56am 22.4 S 10 15 1011.8 - 0.0 Showers Cloudy 2 - - - -
04/09:30am 22.6 SSW 11 17 1011.8 - 0.0 - Partly cloudy 10 - - - -
04/09:07am 22.8 SSW 11 16 1011.8 - 0.0 - Partly cloudy 2 - - - -
04/09:00am 22.3 SSW 12 15 1011.7 - 0.0 Drizzle Cloudy 2 - - - -
04/08:30am 23.2 SSW 9 14 1011.0 R 1.2 Fine Mostly cloudy 20 - - - -
04/08:00am 22.4 SSW 9 11 1011.2 - 1.2 - Mostly clear 10 - - - -
04/07:30am 22.0 SSW 9 12 1011.1 - 1.2 - Mostly clear 10 - - - -
04/07:00am 22.1 SSW 7 10 1010.8 - 1.2 - Mostly clear 10 - - - -
04/06:30am 21.6 SSW 6 8 1010.5 - 1.2 - Partly cloudy 10 - - - -
04/06:00am 21.4 SSW 7 9 1010.2 - 1.2 - Partly cloudy 10 - - - -
04/05:48am 21.3 SSW 7 9 1010.2 - 1.2 - Partly cloudy 10 - - - -
04/05:30am 21.2 SSW 7 10 1009.5 - 1.2 - Cloudy 4 - - - -
04/05:26am 21.3 S 6 9 1010.0 - 0.8 - Partly cloudy 6 - - - -
04/05:22am 21.4 S 6 9 1009.9 - 0.8 - Partly cloudy 10 - - - -
04/05:00am 21.3 SSW 8 13 1009.9 - 0.8 - Partly cloudy 3 - - - -
04/04:54am 21.5 SSW 6 9 1009.9 - 0.8 - Partly cloudy 6 - - - -
04/04:30am 21.6 SSW 7 10 1009.9 - 0.8 - Cloudy 10 - - - -
04/04:00am 21.5 SSW 8 11 1009.9 - 0.8 - Partly cloudy 10 - - - -
04/03:30am 21.6 SSW 7 9 1009.9 - 0.8 - Partly cloudy 10 - - - -
04/03:18am 21.5 SSW 8 11 1009.9 - 0.8 - Partly cloudy 10 - - - -
04/03:04am 21.4 SSW 8 12 1009.9 - 0.8 - Partly cloudy 6 - - - -
04/03:00am 21.4 SSW 7 9 1009.9 - 0.8 - Partly cloudy 10 - - - -
04/02:46am 21.3 SSW 8 14 1010.1 - 0.8 - Partly cloudy 10 - - - -
04/02:30am 21.2 SSW 9 14 1009.7 - 0.8 - Cloudy 2 - - - -
04/02:22am 21.3 SSW 9 15 1010.2 - 0.8 - Partly cloudy 5 - - - -
04/02:00am 21.5 SSW 8 12 1010.4 - 0.8 - Partly cloudy 10 - - - -
04/01:41am 21.4 SSW 10 14 1010.7 - 0.6 - Partly cloudy 10 - - - -
04/01:30am 21.3 SSW 10 15 1010.7 - 0.6 - Partly cloudy 5 - - - -
04/01:11am 21.5 SSW 8 11 1010.8 - 0.6 - Partly cloudy 6 - - - -
04/01:09am 21.5 SSW 9 11 1010.8 - 0.6 - Partly cloudy 10 - - - -
04/01:00am 21.5 SSW 8 12 1010.9 - 0.6 - Partly cloudy 7 - - - -

Other Formats:

Comma delimited format used in spreadsheet applications
http://www.bom.gov.au/fwo/IDN60701/IDN60701.94996.axf

JavaScript Object Notation format (JSON) in row-major order
http://www.bom.gov.au/fwo/IDN60701/IDN60701.94996.json